Unquillo, Argentina
Current Conditions -  °F | °C
As of 2:00 AM on Sunday 26 Oct 2014 (Local Time) from SACO Reporting Station
Clear Clear  
Wind Chill: 73°   Ceiling: Unl
Heat Index: 73°   Visibility: 6mi
Dew Point: 50°   Wind: 9mph
Humidity: 44%   Direction: 360°N
Pressure: 29.88"   Gusts: NA
Location:  31.23°S, 64.32°W
Report Text: SACO 260500Z 36008KT CAVOK 23/10 Q1012
Loading
Personal Weather Stations






























Interactive Weather Map New forecast layout! Learn more

10-Day Weather Forecast

Advertisements
Track Severe Weather on mobile